createdAt,value
2023-03-17T00:02:07.503Z,1.95
2023-03-17T00:04:36.819Z,2.15
2023-03-17T00:07:08.407Z,2.28
2023-03-17T00:09:36.411Z,2.30
2023-03-17T00:12:07.912Z,1.88
2023-03-17T00:14:37.301Z,2.15
2023-03-17T00:17:05.950Z,2.45
2023-03-17T00:19:36.421Z,1.85
2023-03-17T00:22:06.681Z,2.00
2023-03-17T00:24:34.745Z,1.83
2023-03-17T00:27:04.432Z,2.33
2023-03-17T00:29:32.332Z,2.10
2023-03-17T00:32:01.580Z,2.30
2023-03-17T00:34:29.886Z,1.80
2023-03-17T00:36:57.860Z,2.00
2023-03-17T00:39:27.173Z,2.38
2023-03-17T00:41:55.078Z,2.38
2023-03-17T00:44:22.994Z,1.85
2023-03-17T00:46:50.912Z,2.30
2023-03-17T00:49:22.337Z,1.73
2023-03-17T00:51:51.474Z,2.40
2023-03-17T00:54:20.932Z,2.30
2023-03-17T00:56:50.911Z,1.95
2023-03-17T00:59:27.443Z,2.40
2023-03-17T01:01:56.318Z,1.85
2023-03-17T01:04:25.745Z,2.08
2023-03-17T01:06:54.189Z,2.25
2023-03-17T01:09:26.563Z,2.75
2023-03-17T01:11:55.157Z,1.98
2023-03-17T01:14:24.860Z,1.92
2023-03-17T01:16:55.233Z,2.30
2023-03-17T01:19:23.783Z,2.10
2023-03-17T01:21:53.098Z,2.08
2023-03-17T01:24:21.136Z,2.47
2023-03-17T01:26:49.018Z,3.00
2023-03-17T01:29:17.645Z,2.80
2023-03-17T01:31:46.224Z,2.60
2023-03-17T01:34:14.237Z,2.30
2023-03-17T01:36:42.109Z,2.72
2023-03-17T01:39:11.427Z,2.63
2023-03-17T01:41:40.201Z,2.22
2023-03-17T01:44:08.633Z,2.28
2023-03-17T01:46:37.488Z,2.25
2023-03-17T01:49:11.392Z,2.30
2023-03-17T01:54:17.923Z,2.38
2023-03-17T01:56:50.126Z,2.40
2023-03-17T01:59:20.738Z,2.40
2023-03-17T02:01:52.551Z,2.88
2023-03-17T02:04:22.034Z,2.25
2023-03-17T02:06:57.822Z,2.78
2023-03-17T02:09:29.161Z,2.90
2023-03-17T02:11:59.916Z,1.90
2023-03-17T02:14:28.767Z,2.15
2023-03-17T02:16:57.485Z,2.45
2023-03-17T02:19:25.709Z,1.92
2023-03-17T02:21:56.864Z,2.70
2023-03-17T02:24:30.044Z,2.65
2023-03-17T02:27:01.536Z,2.00
2023-03-17T02:29:31.072Z,1.70
2023-03-17T02:31:59.165Z,2.15
2023-03-17T02:34:27.104Z,3.00
2023-03-17T02:36:57.179Z,2.92
2023-03-17T02:39:25.349Z,2.95
2023-03-17T02:41:53.389Z,2.50
2023-03-17T02:44:21.490Z,2.53
2023-03-17T02:46:49.332Z,2.05
2023-03-17T02:49:17.715Z,2.20
2023-03-17T02:51:46.125Z,2.17
2023-03-17T02:54:15.501Z,2.10
2023-03-17T02:56:43.478Z,1.52
2023-03-17T02:59:12.068Z,1.77
2023-03-17T03:01:40.026Z,1.70
2023-03-17T03:04:08.800Z,2.17
2023-03-17T03:06:37.622Z,1.90
2023-03-17T03:09:05.772Z,1.75
2023-03-17T03:11:35.052Z,1.80
2023-03-17T03:14:03.597Z,2.13
2023-03-17T03:16:31.482Z,1.77
2023-03-17T03:18:59.423Z,1.92
2023-03-17T03:21:27.697Z,2.25
2023-03-17T03:23:55.943Z,3.08
2023-03-17T03:26:24.258Z,2.10
2023-03-17T03:28:53.990Z,2.42
2023-03-17T03:31:21.898Z,2.70
2023-03-17T03:33:49.808Z,2.70
2023-03-17T03:36:17.684Z,1.88
2023-03-17T03:38:45.843Z,2.85
2023-03-17T03:41:14.209Z,2.20
2023-03-17T03:43:42.399Z,2.28
2023-03-17T03:46:12.124Z,2.40
2023-03-17T03:48:40.009Z,2.80
2023-03-17T03:51:08.031Z,3.00
2023-03-17T03:53:36.204Z,2.92
2023-03-17T03:56:04.218Z,2.90
2023-03-17T03:58:32.102Z,3.92
2023-03-17T04:01:00.027Z,2.80
2023-03-17T04:03:29.314Z,2.42
2023-03-17T04:05:57.697Z,2.50
2023-03-17T04:08:26.074Z,2.53
2023-03-17T04:10:54.085Z,3.53
2023-03-17T04:13:22.284Z,2.28
2023-03-17T04:15:50.224Z,2.60
2023-03-17T04:18:18.665Z,2.55
2023-03-17T04:20:47.914Z,3.08
2023-03-17T04:23:15.842Z,2.25
2023-03-17T04:25:43.709Z,2.67
2023-03-17T04:28:12.615Z,2.78
2023-03-17T04:30:40.482Z,2.58
2023-03-17T04:33:08.420Z,2.08
2023-03-17T04:35:36.376Z,2.50
2023-03-17T04:38:05.897Z,2.20
2023-03-17T04:40:33.765Z,2.53
2023-03-17T04:43:03.447Z,2.33
2023-03-17T04:45:31.755Z,2.00
2023-03-17T04:47:59.657Z,1.92
2023-03-17T04:50:27.692Z,4.03
2023-03-17T04:52:55.828Z,3.63
2023-03-17T04:55:25.170Z,3.40
2023-03-17T04:57:53.046Z,2.58
2023-03-17T05:00:21.407Z,2.72
2023-03-17T05:02:49.255Z,2.67
2023-03-17T05:05:17.390Z,2.38
2023-03-17T05:07:45.507Z,2.28
2023-03-17T05:10:13.888Z,1.90
2023-03-17T05:12:43.170Z,2.28
2023-03-17T05:15:11.682Z,2.25
2023-03-17T05:17:39.642Z,2.03
2023-03-17T05:20:09.566Z,2.38
2023-03-17T05:22:37.523Z,2.63
2023-03-17T05:25:06.763Z,2.03
2023-03-17T05:27:34.762Z,1.83
2023-03-17T05:30:04.837Z,1.90
2023-03-17T05:32:33.629Z,1.75
2023-03-17T05:35:02.247Z,2.22
2023-03-17T05:37:30.119Z,3.30
2023-03-17T05:39:57.996Z,3.00
2023-03-17T05:42:26.366Z,3.22
2023-03-17T05:44:54.422Z,2.92
2023-03-17T05:47:23.901Z,4.30
2023-03-17T05:49:53.491Z,3.80
2023-03-17T05:52:21.493Z,3.38
2023-03-17T05:54:49.411Z,2.38
2023-03-17T05:57:17.318Z,2.40
2023-03-17T05:59:45.516Z,2.20
2023-03-17T06:02:14.618Z,2.00
2023-03-17T06:04:44.265Z,3.10
2023-03-17T06:07:12.331Z,2.70
2023-03-17T06:09:40.570Z,2.15
2023-03-17T06:12:09.451Z,2.20
2023-03-17T06:14:37.526Z,3.47
2023-03-17T06:17:05.594Z,2.08
2023-03-17T06:19:33.538Z,3.33
2023-03-17T06:22:02.768Z,3.60
2023-03-17T06:24:30.674Z,3.88
2023-03-17T06:26:58.527Z,5.10
2023-03-17T06:29:26.509Z,4.38
2023-03-17T06:31:54.437Z,3.38
2023-03-17T06:34:24.102Z,3.40
2023-03-17T06:36:52.275Z,3.00
2023-03-17T06:39:21.583Z,2.58
2023-03-17T06:41:51.197Z,2.78
2023-03-17T06:44:19.115Z,2.17
2023-03-17T06:46:47.006Z,2.22
2023-03-17T06:49:14.955Z,2.55
2023-03-17T06:51:42.807Z,2.85
2023-03-17T06:54:10.892Z,3.22
2023-03-17T06:56:40.178Z,3.53
2023-03-17T06:59:08.113Z,3.13
2023-03-17T07:01:36.014Z,2.92
2023-03-17T07:04:05.491Z,2.38
2023-03-17T07:06:34.048Z,2.45
2023-03-17T07:09:02.480Z,2.13
2023-03-17T07:11:30.820Z,2.08
2023-03-17T07:14:00.578Z,2.53
2023-03-17T07:16:28.999Z,2.83
2023-03-17T07:18:57.116Z,2.30
2023-03-17T07:21:25.050Z,5.20
2023-03-17T07:23:52.994Z,21.65
2023-03-17T07:26:20.878Z,11.10
2023-03-17T07:28:48.801Z,8.90
2023-03-17T07:31:18.319Z,9.90
2023-03-17T07:33:46.483Z,11.88
2023-03-17T07:36:15.917Z,8.18
2023-03-17T07:38:44.428Z,8.27
2023-03-17T07:41:12.364Z,10.98
2023-03-17T07:43:40.642Z,9.68
2023-03-17T07:46:08.656Z,12.27
2023-03-17T07:48:42.159Z,16.25
2023-03-17T07:51:14.649Z,16.85
2023-03-17T07:53:43.201Z,14.35
2023-03-17T07:56:11.159Z,13.55
2023-03-17T07:58:39.149Z,13.00
2023-03-17T08:01:08.501Z,11.07
2023-03-17T08:03:41.002Z,10.63
2023-03-17T08:06:09.849Z,9.30
2023-03-17T08:08:37.866Z,8.57
2023-03-17T08:11:07.768Z,8.63
2023-03-17T08:13:35.863Z,8.35
2023-03-17T08:16:03.770Z,10.60
2023-03-17T08:18:32.077Z,9.57
2023-03-17T08:21:02.118Z,10.05
2023-03-17T08:23:31.133Z,9.07
2023-03-17T08:25:59.259Z,7.75
2023-03-17T08:28:27.360Z,7.43
2023-03-17T08:30:55.925Z,7.15
2023-03-17T08:33:23.989Z,6.55
2023-03-17T08:35:52.289Z,6.75
2023-03-17T08:38:21.615Z,6.15
2023-03-17T08:40:51.048Z,5.38
2023-03-17T08:43:19.084Z,7.28
2023-03-17T08:45:47.062Z,8.05
2023-03-17T08:48:15.402Z,6.57
2023-03-17T08:50:43.530Z,7.22
2023-03-17T08:53:11.992Z,6.20
2023-03-17T08:55:41.324Z,5.95
2023-03-17T08:58:09.598Z,6.80
2023-03-17T09:00:37.643Z,4.53
2023-03-17T09:03:05.922Z,6.70
2023-03-17T09:05:36.903Z,4.82
2023-03-17T09:08:06.239Z,6.05
2023-03-17T09:10:34.459Z,5.20
2023-03-17T09:13:04.788Z,6.88
2023-03-17T09:15:34.319Z,5.30
2023-03-17T09:18:03.334Z,6.45
2023-03-17T09:20:31.645Z,6.72
2023-03-17T09:22:59.877Z,5.70
2023-03-17T09:25:28.467Z,7.10
2023-03-17T09:27:56.824Z,5.95
2023-03-17T09:30:27.054Z,4.65
2023-03-17T09:32:55.122Z,6.18
2023-03-17T09:35:23.147Z,4.80
2023-03-17T09:37:51.670Z,5.55
2023-03-17T09:40:22.468Z,7.20
2023-03-17T09:43:01.602Z,5.10
2023-03-17T09:45:36.802Z,6.57
2023-03-17T09:48:23.757Z,6.60
2023-03-17T09:50:57.585Z,6.85
2023-03-17T09:55:59.912Z,6.30
2023-03-17T09:58:33.168Z,6.82
2023-03-17T10:01:05.267Z,5.80
2023-03-17T10:03:34.223Z,5.55
2023-03-17T10:06:18.968Z,5.78
2023-03-17T10:08:52.776Z,5.32
2023-03-17T10:13:59.347Z,4.43
2023-03-17T10:16:35.755Z,5.15
2023-03-17T10:19:11.700Z,4.80
2023-03-17T10:21:49.780Z,5.85
2023-03-17T10:24:17.939Z,5.03
2023-03-17T10:26:49.277Z,5.72
2023-03-17T10:29:21.467Z,4.72
2023-03-17T10:31:51.851Z,3.92
2023-03-17T10:34:23.846Z,4.68
2023-03-17T10:36:55.552Z,4.03
2023-03-17T10:39:25.003Z,4.45
2023-03-17T10:41:58.122Z,4.80
2023-03-17T10:44:40.689Z,4.53
2023-03-17T10:47:22.728Z,4.35
2023-03-17T10:49:52.120Z,3.50
2023-03-17T10:52:23.697Z,3.90
2023-03-17T10:54:52.724Z,3.60
2023-03-17T10:57:21.422Z,4.10
2023-03-17T10:59:57.599Z,2.75
2023-03-17T11:02:29.474Z,3.83
2023-03-17T11:05:02.481Z,3.20
2023-03-17T11:07:35.411Z,3.65
2023-03-17T11:10:04.839Z,6.23
2023-03-17T11:12:39.409Z,4.22
2023-03-17T11:15:12.094Z,3.92
2023-03-17T11:17:49.795Z,3.92
2023-03-17T11:20:33.041Z,3.40
2023-03-17T11:23:07.342Z,3.60
2023-03-17T11:25:42.727Z,4.32
2023-03-17T11:28:20.979Z,3.75
2023-03-17T11:30:59.552Z,3.38
2023-03-17T11:33:36.333Z,4.65
2023-03-17T11:36:13.442Z,3.75
2023-03-17T11:38:51.689Z,3.38
2023-03-17T11:41:41.863Z,4.45
2023-03-17T11:44:28.988Z,3.22
2023-03-17T11:47:02.562Z,4.30
2023-03-17T11:49:37.095Z,4.55
2023-03-17T11:52:12.257Z,3.85
2023-03-17T11:54:50.710Z,4.28
2023-03-17T11:57:24.052Z,2.60
2023-03-17T11:59:57.027Z,5.05
2023-03-17T12:02:32.178Z,4.35
2023-03-17T12:05:06.197Z,4.78
2023-03-17T12:07:37.959Z,4.97
2023-03-17T12:10:17.411Z,5.05
2023-03-17T12:12:51.069Z,4.18
2023-03-17T12:15:24.108Z,5.30
2023-03-17T12:17:57.261Z,5.22
2023-03-17T12:20:35.010Z,4.20
2023-03-17T12:23:09.199Z,5.25
2023-03-17T12:25:45.120Z,4.63
2023-03-17T12:28:17.157Z,4.78
2023-03-17T12:30:51.092Z,4.20
2023-03-17T12:33:26.519Z,4.75
2023-03-17T12:35:55.902Z,5.50
2023-03-17T12:38:30.809Z,5.88
2023-03-17T12:41:32.807Z,4.47
2023-03-17T12:44:06.690Z,5.60
2023-03-17T12:46:52.016Z,5.82
2023-03-17T12:49:45.193Z,4.68
2023-03-17T12:52:26.032Z,4.57
2023-03-17T12:54:54.806Z,3.88
2023-03-17T12:57:28.379Z,4.47
2023-03-17T13:00:05.625Z,4.93
2023-03-17T13:02:38.526Z,3.63
2023-03-17T13:05:10.096Z,3.90
2023-03-17T13:07:46.635Z,4.32
2023-03-17T13:10:41.662Z,2.78
2023-03-17T13:13:23.298Z,2.33
2023-03-17T13:16:04.479Z,1.67
2023-03-17T13:18:54.077Z,1.80
2023-03-17T13:21:26.459Z,1.58
2023-03-17T13:24:20.546Z,2.00
2023-03-17T13:27:00.979Z,1.67
2023-03-17T13:29:47.357Z,1.50
2023-03-17T13:32:38.193Z,1.45
2023-03-17T13:35:20.969Z,1.33
2023-03-17T13:38:13.659Z,1.42
2023-03-17T13:40:57.725Z,1.70
2023-03-17T13:43:50.030Z,1.63
2023-03-17T13:46:27.816Z,1.02
2023-03-17T13:48:57.676Z,1.42
2023-03-17T13:51:34.197Z,1.30
2023-03-17T13:54:12.030Z,1.15
2023-03-17T13:56:54.347Z,1.70
2023-03-17T13:59:24.757Z,1.52
2023-03-17T14:01:57.774Z,1.42
2023-03-17T14:04:28.387Z,1.50
2023-03-17T14:07:01.103Z,1.83
2023-03-17T14:09:37.385Z,1.40
2023-03-17T14:12:14.245Z,2.05
2023-03-17T14:14:49.706Z,1.30
2023-03-17T14:17:24.639Z,1.27
2023-03-17T14:20:08.524Z,1.85
2023-03-17T14:25:17.211Z,1.40
2023-03-17T14:27:49.325Z,1.23
2023-03-17T14:30:22.670Z,1.83
2023-03-17T14:32:57.215Z,1.38
2023-03-17T14:35:25.615Z,2.20
2023-03-17T14:37:53.492Z,1.88
2023-03-17T14:40:24.048Z,1.80
2023-03-17T14:42:53.582Z,1.90
2023-03-17T14:45:29.433Z,2.28
2023-03-17T14:47:58.106Z,1.90
2023-03-17T14:50:29.726Z,1.60
2023-03-17T14:52:59.923Z,3.33
2023-03-17T14:55:37.054Z,2.60
2023-03-17T14:58:11.317Z,1.90
2023-03-17T15:00:44.894Z,1.85
2023-03-17T15:05:47.489Z,2.53
2023-03-17T15:08:42.760Z,4.50
2023-03-17T15:11:18.816Z,3.75
2023-03-17T15:13:49.888Z,2.33
2023-03-17T15:16:22.271Z,8.98
2023-03-17T15:18:58.698Z,4.05
2023-03-17T15:21:34.622Z,4.95
2023-03-17T15:24:21.309Z,4.43
2023-03-17T15:26:49.738Z,5.47
2023-03-17T15:29:19.736Z,2.75
2023-03-17T15:31:47.727Z,3.22
2023-03-17T15:34:16.209Z,2.70
2023-03-17T15:36:47.478Z,2.10
2023-03-17T15:39:15.493Z,1.73
2023-03-17T15:41:43.449Z,1.45
2023-03-17T15:44:11.850Z,1.60
2023-03-17T15:46:42.026Z,1.92
2023-03-17T15:49:12.274Z,1.48
2023-03-17T15:51:40.619Z,1.83
2023-03-17T15:54:12.382Z,2.20
2023-03-17T15:57:24.824Z,1.70
2023-03-17T15:59:53.088Z,1.33
2023-03-17T16:02:30.997Z,1.70
2023-03-17T16:05:01.878Z,1.60
2023-03-17T16:07:31.573Z,1.90
2023-03-17T16:09:59.927Z,1.90
2023-03-17T16:12:27.999Z,2.35
2023-03-17T16:14:56.126Z,2.22
2023-03-17T16:17:30.056Z,2.75
2023-03-17T16:19:58.669Z,2.35
2023-03-17T16:22:43.774Z,2.63
2023-03-17T16:25:26.930Z,2.13
2023-03-17T16:27:56.564Z,1.97
2023-03-17T16:30:27.129Z,2.15
2023-03-17T16:33:00.945Z,2.22
2023-03-17T16:35:29.900Z,1.83
2023-03-17T16:37:57.796Z,1.83
2023-03-17T16:40:27.872Z,2.25
2023-03-17T16:42:56.167Z,2.22
2023-03-17T16:45:29.844Z,1.88
2023-03-17T16:50:36.041Z,1.98
2023-03-17T16:53:06.301Z,1.83
2023-03-17T16:55:34.692Z,2.13
2023-03-17T16:58:08.557Z,1.60
2023-03-17T17:00:36.847Z,2.13
2023-03-17T17:03:06.294Z,1.50
2023-03-17T17:05:34.558Z,1.98
2023-03-17T17:08:02.980Z,1.75
2023-03-17T17:10:34.413Z,1.60
2023-03-17T17:13:02.721Z,1.38
2023-03-17T17:15:31.988Z,1.85
2023-03-17T17:18:03.874Z,2.10
2023-03-17T17:20:36.085Z,1.80
2023-03-17T17:23:06.730Z,1.73
2023-03-17T17:25:34.991Z,1.83
2023-03-17T17:28:02.892Z,1.83
2023-03-17T17:30:31.795Z,1.95
2023-03-17T17:33:01.875Z,1.98
2023-03-17T17:35:32.840Z,1.35
2023-03-17T17:38:02.705Z,2.17
2023-03-17T17:40:32.268Z,2.10
2023-03-17T17:43:00.586Z,3.47
2023-03-17T17:45:29.444Z,3.60
2023-03-17T17:47:57.721Z,3.85
2023-03-17T17:50:28.471Z,3.40
2023-03-17T17:53:02.709Z,3.00
2023-03-17T17:55:34.176Z,3.45
2023-03-17T17:58:02.382Z,3.38
2023-03-17T18:00:31.091Z,3.53
2023-03-17T18:02:59.460Z,3.10
2023-03-17T18:05:38.555Z,3.42
2023-03-17T18:08:10.003Z,3.92
2023-03-17T18:10:40.240Z,4.18
2023-03-17T18:13:12.459Z,4.25
2023-03-17T18:15:44.078Z,2.88
2023-03-17T18:18:14.230Z,2.53
2023-03-17T18:20:45.132Z,3.00
2023-03-17T18:23:16.318Z,3.50
2023-03-17T18:25:55.008Z,2.78
2023-03-17T18:28:25.021Z,2.80
2023-03-17T18:30:55.787Z,3.30
2023-03-17T18:33:33.271Z,3.55
2023-03-17T18:36:02.868Z,3.20
2023-03-17T18:38:33.224Z,3.80
2023-03-17T18:41:04.216Z,3.13
2023-03-17T18:43:32.193Z,3.03
2023-03-17T18:46:00.893Z,2.97
2023-03-17T18:48:29.527Z,3.10
2023-03-17T18:50:57.563Z,3.00
2023-03-17T18:53:30.807Z,3.70
2023-03-17T18:55:59.428Z,3.30
2023-03-17T18:58:29.362Z,3.00
2023-03-17T19:00:59.701Z,2.28
2023-03-17T19:03:28.361Z,2.50
2023-03-17T19:05:56.916Z,2.03
2023-03-17T19:08:25.457Z,2.22
2023-03-17T19:10:53.343Z,1.90
2023-03-17T19:13:21.298Z,1.73
2023-03-17T19:15:50.880Z,1.58
2023-03-17T19:18:18.775Z,2.15
2023-03-17T19:20:46.892Z,2.28
2023-03-17T19:23:15.571Z,2.20
2023-03-17T19:25:43.569Z,2.05
2023-03-17T19:28:11.477Z,2.13
2023-03-17T19:30:39.615Z,2.22
2023-03-17T19:33:09.237Z,2.47
2023-03-17T19:35:37.153Z,2.17
2023-03-17T19:38:05.229Z,2.10
2023-03-17T19:40:33.448Z,1.70
2023-03-17T19:43:01.602Z,2.28
2023-03-17T19:45:29.531Z,2.13
2023-03-17T19:47:57.679Z,1.88
2023-03-17T19:50:27.407Z,1.35
2023-03-17T19:52:55.711Z,1.58
2023-03-17T19:55:24.974Z,1.67
2023-03-17T19:57:53.004Z,2.13
2023-03-17T20:00:22.577Z,1.10
2023-03-17T20:02:50.955Z,1.73
2023-03-17T20:05:18.949Z,1.70
2023-03-17T20:07:48.225Z,1.50
2023-03-17T20:10:16.156Z,1.55
2023-03-17T20:12:45.791Z,1.90
2023-03-17T20:15:14.164Z,1.45
2023-03-17T20:17:42.036Z,1.73
2023-03-17T20:20:11.973Z,1.40
2023-03-17T20:22:40.445Z,1.40
2023-03-17T20:25:10.965Z,1.42
2023-03-17T20:27:39.011Z,1.98
2023-03-17T20:30:11.502Z,1.60
2023-03-17T20:32:40.335Z,1.70
2023-03-17T20:35:09.346Z,1.63
2023-03-17T20:37:37.446Z,1.67
2023-03-17T20:40:08.425Z,1.38
2023-03-17T20:42:38.456Z,1.55
2023-03-17T20:45:07.560Z,1.10
2023-03-17T20:47:36.191Z,1.60
2023-03-17T20:50:04.625Z,1.35
2023-03-17T20:52:32.492Z,1.63
2023-03-17T20:55:00.551Z,1.40
2023-03-17T20:57:28.807Z,1.60
2023-03-17T20:59:58.198Z,1.50
2023-03-17T21:02:26.665Z,1.42
2023-03-17T21:04:54.580Z,1.50
2023-03-17T21:07:23.304Z,1.75
2023-03-17T21:09:51.998Z,1.70
2023-03-17T21:12:21.362Z,1.60
2023-03-17T21:14:49.341Z,2.05
2023-03-17T21:17:19.117Z,2.45
2023-03-17T21:19:47.541Z,2.65
2023-03-17T21:22:16.132Z,2.25
2023-03-17T21:24:44.218Z,2.65
2023-03-17T21:27:13.301Z,2.33
2023-03-17T21:29:41.560Z,3.10
2023-03-17T21:32:09.589Z,2.17
2023-03-17T21:34:40.208Z,2.50
2023-03-17T21:37:09.391Z,2.38
2023-03-17T21:39:37.390Z,2.53
2023-03-17T21:42:05.682Z,2.22
2023-03-17T21:44:33.626Z,2.55
2023-03-17T21:47:03.110Z,1.70
2023-03-17T21:49:31.101Z,2.33
2023-03-17T21:52:00.378Z,1.80
2023-03-17T21:54:28.533Z,4.43
2023-03-17T21:56:56.460Z,1.88
2023-03-17T21:59:24.989Z,2.05
2023-03-17T22:01:57.207Z,1.67
2023-03-17T22:04:26.038Z,1.80
2023-03-17T22:06:55.642Z,1.80
2023-03-17T22:09:24.932Z,1.80
2023-03-17T22:11:52.808Z,1.83
2023-03-17T22:14:21.041Z,2.00
2023-03-17T22:16:49.485Z,2.03
2023-03-17T22:19:21.110Z,1.90
2023-03-17T22:21:49.439Z,2.10
2023-03-17T22:24:17.878Z,2.17
2023-03-17T22:26:47.222Z,2.30
2023-03-17T22:29:15.415Z,2.40
2023-03-17T22:31:43.808Z,1.83
2023-03-17T22:34:11.832Z,2.33
2023-03-17T22:36:39.822Z,2.35
2023-03-17T22:39:08.927Z,1.80
2023-03-17T22:41:37.205Z,2.13
2023-03-17T22:44:08.327Z,1.58
2023-03-17T22:46:36.667Z,1.80
2023-03-17T22:49:05.917Z,1.73
2023-03-17T22:51:33.894Z,1.50
2023-03-17T22:54:02.065Z,1.48
2023-03-17T22:56:30.164Z,1.63
2023-03-17T22:58:58.130Z,1.60
2023-03-17T23:01:27.704Z,1.40
2023-03-17T23:03:56.093Z,1.45
2023-03-17T23:06:25.048Z,1.85
2023-03-17T23:08:54.103Z,2.70
2023-03-17T23:11:26.868Z,1.80
2023-03-17T23:13:55.512Z,1.67
2023-03-17T23:16:27.228Z,1.95
2023-03-17T23:18:57.141Z,1.90
2023-03-17T23:21:29.220Z,1.73
2023-03-17T23:23:57.334Z,1.80
2023-03-17T23:26:26.610Z,1.98
2023-03-17T23:28:55.198Z,1.67
2023-03-17T23:31:23.858Z,1.70
2023-03-17T23:33:53.052Z,2.60
2023-03-17T23:36:22.765Z,1.90
2023-03-17T23:38:52.300Z,1.90
2023-03-17T23:41:21.234Z,1.98
2023-03-17T23:43:50.467Z,1.88
2023-03-17T23:46:19.570Z,1.60
2023-03-17T23:48:50.543Z,2.10
2023-03-17T23:51:22.735Z,1.92
2023-03-17T23:53:54.160Z,1.73
2023-03-17T23:56:22.379Z,1.80
2023-03-17T23:58:51.509Z,1.58
